createdAt,value
2022-10-16T00:02:17.769Z,79.20
2022-10-16T00:07:21.964Z,79.09
2022-10-16T00:12:25.099Z,80.25
2022-10-16T00:17:27.996Z,79.74
2022-10-16T00:22:32.306Z,79.50
2022-10-16T00:27:35.736Z,78.69
2022-10-16T00:32:38.463Z,78.89
2022-10-16T00:37:42.600Z,78.66
2022-10-16T00:42:45.366Z,78.52
2022-10-16T00:47:52.378Z,78.60
2022-10-16T00:52:57.914Z,78.46
2022-10-16T00:58:01.604Z,78.64
2022-10-16T01:03:05.065Z,78.76
2022-10-16T01:08:15.781Z,79.35
2022-10-16T01:13:23.316Z,79.16
2022-10-16T01:18:33.437Z,79.29
2022-10-16T01:23:51.504Z,79.31
2022-10-16T01:28:59.437Z,79.73
2022-10-16T01:34:06.496Z,79.35
2022-10-16T01:39:12.696Z,79.21
2022-10-16T01:44:22.069Z,79.57
2022-10-16T01:49:28.438Z,79.74
2022-10-16T01:54:34.201Z,79.88
2022-10-16T01:59:45.271Z,80.41
2022-10-16T02:04:51.696Z,79.98
2022-10-16T02:09:54.532Z,79.82
2022-10-16T02:14:58.956Z,80.47
2022-10-16T02:20:02.471Z,79.79
2022-10-16T02:25:10.457Z,80.01
2022-10-16T02:30:21.220Z,81.73
2022-10-16T02:35:25.653Z,81.21
2022-10-16T02:40:29.670Z,82.05
2022-10-16T02:45:34.128Z,81.76
2022-10-16T02:50:36.966Z,82.87
2022-10-16T02:55:39.756Z,82.11
2022-10-16T03:00:44.142Z,81.53
2022-10-16T03:05:47.527Z,81.22
2022-10-16T03:10:50.300Z,81.46
2022-10-16T03:15:54.188Z,81.22
2022-10-16T03:20:56.992Z,81.60
2022-10-16T03:26:00.006Z,81.05
2022-10-16T03:31:04.181Z,80.89
2022-10-16T03:36:07.291Z,80.28
2022-10-16T03:41:10.124Z,80.96
2022-10-16T03:46:14.281Z,80.36
2022-10-16T03:51:17.022Z,81.31
2022-10-16T03:56:19.584Z,81.44
2022-10-16T04:01:23.728Z,80.40
2022-10-16T04:06:26.480Z,80.18
2022-10-16T04:11:29.220Z,79.42
2022-10-16T04:16:33.423Z,79.09
2022-10-16T04:21:36.190Z,79.82
2022-10-16T04:26:39.122Z,79.13
2022-10-16T04:31:43.288Z,79.81
2022-10-16T04:36:46.211Z,79.27
2022-10-16T04:41:48.920Z,78.63
2022-10-16T04:46:53.756Z,78.39
2022-10-16T04:51:56.514Z,78.33
2022-10-16T04:56:59.648Z,77.91
2022-10-16T05:02:03.834Z,77.62
2022-10-16T05:07:06.556Z,78.08
2022-10-16T05:12:09.154Z,77.47
2022-10-16T05:17:13.311Z,76.91
2022-10-16T05:22:16.034Z,77.03
2022-10-16T05:27:20.623Z,77.19
2022-10-16T05:32:24.756Z,77.31
2022-10-16T05:37:27.934Z,77.90
2022-10-16T05:42:30.943Z,77.58
2022-10-16T05:47:35.050Z,77.26
2022-10-16T05:52:37.781Z,77.20
2022-10-16T05:57:40.609Z,77.75
2022-10-16T06:02:44.946Z,77.18
2022-10-16T06:07:47.682Z,76.87
2022-10-16T06:12:50.265Z,76.37
2022-10-16T06:17:54.393Z,76.60
2022-10-16T06:22:57.380Z,76.02
2022-10-16T06:28:00.272Z,75.87
2022-10-16T06:33:04.541Z,75.25
2022-10-16T06:38:07.296Z,73.94
2022-10-16T06:43:10.004Z,72.98
2022-10-16T06:48:14.181Z,73.28
2022-10-16T06:53:16.930Z,72.67
2022-10-16T06:58:23.919Z,72.69
2022-10-16T07:03:29.485Z,73.29
2022-10-16T07:08:34.413Z,73.00
2022-10-16T07:13:38.072Z,72.20
2022-10-16T07:18:44.695Z,70.71
2022-10-16T07:23:51.898Z,71.08
2022-10-16T07:28:55.034Z,69.81
2022-10-16T07:34:00.578Z,69.05
2022-10-16T07:39:03.815Z,70.18
2022-10-16T07:44:07.650Z,69.21
2022-10-16T07:49:12.078Z,69.55
2022-10-16T07:54:14.827Z,68.68
2022-10-16T07:59:17.977Z,70.73
2022-10-16T08:04:22.153Z,71.40
2022-10-16T08:09:24.897Z,70.61
2022-10-16T08:14:27.844Z,68.43
2022-10-16T08:19:35.232Z,68.64
2022-10-16T08:24:38.118Z,68.76
2022-10-16T08:29:40.876Z,66.95
2022-10-16T08:34:44.999Z,67.45
2022-10-16T08:39:47.737Z,66.47
2022-10-16T08:45:25.198Z,67.47
2022-10-16T08:50:31.685Z,66.03
2022-10-16T08:55:40.736Z,64.88
2022-10-16T09:00:45.847Z,67.28
2022-10-16T09:06:02.965Z,67.08
2022-10-16T09:11:12.576Z,65.96
2022-10-16T09:16:22.779Z,66.55
2022-10-16T09:21:30.832Z,64.76
2022-10-16T09:26:33.607Z,63.58
2022-10-16T09:31:38.588Z,65.32
2022-10-16T09:36:46.839Z,63.19
2022-10-16T09:41:50.119Z,62.06
2022-10-16T09:47:03.528Z,62.11
2022-10-16T09:52:13.554Z,60.96
2022-10-16T09:57:16.696Z,60.35
2022-10-16T10:02:21.841Z,59.14
2022-10-16T10:07:29.396Z,57.91
2022-10-16T10:12:36.690Z,56.40
2022-10-16T10:17:48.447Z,56.87
2022-10-16T10:22:52.704Z,56.52
2022-10-16T10:28:11.971Z,57.00
2022-10-16T10:33:26.888Z,57.51
2022-10-16T10:38:40.312Z,57.07
2022-10-16T10:43:58.457Z,55.55
2022-10-16T10:49:17.055Z,54.10
2022-10-16T10:54:29.752Z,53.72
2022-10-16T10:59:45.649Z,58.08
2022-10-16T11:04:59.933Z,52.59
2022-10-16T11:10:14.939Z,52.12
2022-10-16T11:15:21.624Z,52.04
2022-10-16T11:20:27.889Z,53.35
2022-10-16T11:25:33.776Z,55.60
2022-10-16T11:30:45.303Z,56.37
2022-10-16T11:35:53.485Z,51.76
2022-10-16T11:41:05.280Z,52.28
2022-10-16T11:46:13.859Z,54.21
2022-10-16T11:51:23.349Z,54.33
2022-10-16T11:56:28.525Z,53.00
2022-10-16T12:01:40.490Z,49.62
2022-10-16T12:06:46.267Z,49.39
2022-10-16T12:11:50.548Z,48.17
2022-10-16T12:16:56.153Z,48.33
2022-10-16T12:22:00.430Z,47.22
2022-10-16T12:27:06.123Z,46.67
2022-10-16T12:32:45.782Z,46.96
2022-10-16T12:37:51.316Z,51.02
2022-10-16T12:42:55.681Z,52.98
2022-10-16T12:47:59.157Z,52.32
2022-10-16T12:53:03.807Z,50.36
2022-10-16T12:58:21.230Z,49.18
2022-10-16T13:03:50.218Z,48.81
2022-10-16T13:09:28.701Z,44.76
2022-10-16T13:14:56.323Z,44.30
2022-10-16T13:20:09.564Z,43.71
2022-10-16T13:25:24.449Z,44.22
2022-10-16T13:30:31.233Z,44.06
2022-10-16T13:35:35.923Z,42.57
2022-10-16T13:40:38.755Z,46.85
2022-10-16T13:45:42.993Z,44.96
2022-10-16T13:50:45.733Z,45.52
2022-10-16T13:55:48.466Z,46.26
2022-10-16T14:00:58.673Z,44.35
2022-10-16T14:06:03.856Z,45.99
2022-10-16T14:11:06.688Z,46.30
2022-10-16T14:16:12.902Z,45.76
2022-10-16T14:21:17.955Z,46.99
2022-10-16T14:26:23.846Z,47.44
2022-10-16T14:31:31.161Z,46.35
2022-10-16T14:36:35.954Z,46.16
2022-10-16T14:41:46.032Z,46.56
2022-10-16T14:46:50.417Z,45.76
2022-10-16T14:51:53.476Z,45.17
2022-10-16T14:56:58.632Z,45.71
2022-10-16T15:02:23.198Z,47.08
2022-10-16T15:07:26.803Z,48.12
2022-10-16T15:12:29.749Z,47.91
2022-10-16T15:17:33.867Z,46.40
2022-10-16T15:22:36.595Z,46.08
2022-10-16T15:27:41.186Z,47.81
2022-10-16T15:32:45.313Z,47.92
2022-10-16T15:37:49.071Z,48.77
2022-10-16T15:42:52.120Z,50.22
2022-10-16T15:47:56.220Z,51.80
2022-10-16T15:52:59.141Z,53.79
2022-10-16T15:58:01.958Z,55.66
2022-10-16T16:03:06.320Z,56.26
2022-10-16T16:08:09.302Z,57.01
2022-10-16T16:13:12.434Z,57.63
2022-10-16T16:18:16.550Z,57.34
2022-10-16T16:23:20.138Z,57.80
2022-10-16T16:28:22.981Z,58.87
2022-10-16T16:33:27.740Z,58.37
2022-10-16T16:38:32.266Z,58.37
2022-10-16T16:43:35.094Z,58.73
2022-10-16T16:48:40.209Z,58.95
2022-10-16T16:53:43.497Z,59.23
2022-10-16T16:58:47.279Z,59.40
2022-10-16T17:03:53.593Z,59.08
2022-10-16T17:08:57.009Z,58.80
2022-10-16T17:14:01.774Z,58.98
2022-10-16T17:19:08.260Z,59.17
2022-10-16T17:24:11.268Z,59.30
2022-10-16T17:29:14.619Z,59.31
2022-10-16T17:34:19.694Z,60.06
2022-10-16T17:39:23.300Z,60.32
2022-10-16T17:44:26.239Z,59.59
2022-10-16T17:49:30.547Z,59.75
2022-10-16T17:54:33.410Z,59.88
2022-10-16T17:59:36.246Z,60.96
2022-10-16T18:04:40.921Z,61.47
2022-10-16T18:10:09.844Z,61.83
2022-10-16T18:15:08.417Z,61.76
2022-10-16T18:20:13.700Z,61.37
2022-10-16T18:25:16.758Z,60.87
2022-10-16T18:30:19.697Z,60.90
2022-10-16T18:35:24.099Z,61.23
2022-10-16T18:40:27.169Z,61.72
2022-10-16T18:45:30.044Z,61.67
2022-10-16T18:50:34.474Z,62.42
2022-10-16T18:55:37.364Z,62.54
2022-10-16T19:00:40.232Z,63.52
2022-10-16T19:05:46.354Z,64.29
2022-10-16T19:10:49.206Z,64.13
2022-10-16T19:15:58.201Z,64.21
2022-10-16T19:26:15.957Z,64.58
2022-10-16T19:31:20.985Z,64.81
2022-10-16T19:36:27.235Z,65.16
2022-10-16T19:41:31.569Z,65.02
2022-10-16T19:46:35.160Z,65.03
2022-10-16T19:51:40.069Z,65.28
2022-10-16T19:56:43.306Z,65.26
2022-10-16T20:01:47.762Z,65.20
2022-10-16T20:06:51.999Z,65.20
2022-10-16T20:11:54.725Z,65.03
2022-10-16T20:16:57.628Z,65.14
2022-10-16T20:22:01.978Z,65.05
2022-10-16T20:27:04.886Z,65.45
2022-10-16T20:32:07.728Z,65.47
2022-10-16T20:37:11.920Z,65.34
2022-10-16T20:42:14.888Z,65.48
2022-10-16T20:47:17.821Z,65.39
2022-10-16T20:52:22.078Z,69.88
2022-10-16T20:57:25.199Z,76.77
2022-10-16T21:02:28.144Z,80.93
2022-10-16T21:07:32.334Z,83.70
2022-10-16T21:12:35.279Z,84.34
2022-10-16T21:17:38.053Z,86.01
2022-10-16T21:22:42.274Z,85.93
2022-10-16T21:27:46.079Z,86.04
2022-10-16T21:32:48.821Z,86.83
2022-10-16T21:37:52.949Z,86.35
2022-10-16T21:42:55.682Z,86.78
2022-10-16T21:47:58.504Z,87.35
2022-10-16T21:53:02.618Z,86.82
2022-10-16T21:58:05.388Z,87.41
2022-10-16T22:03:08.215Z,87.54
2022-10-16T22:08:12.347Z,87.43
2022-10-16T22:13:15.068Z,87.19
2022-10-16T22:18:17.804Z,86.43
2022-10-16T22:23:22.311Z,86.86
2022-10-16T22:28:25.181Z,86.58
2022-10-16T22:33:27.993Z,86.86
2022-10-16T22:38:32.799Z,86.58
2022-10-16T22:43:37.297Z,86.66
2022-10-16T22:48:40.379Z,86.44
2022-10-16T22:53:44.853Z,86.71
2022-10-16T22:58:47.669Z,86.21
2022-10-16T23:03:51.148Z,86.93
2022-10-16T23:08:56.957Z,86.88
2022-10-16T23:13:59.810Z,86.56
2022-10-16T23:19:02.652Z,86.91
2022-10-16T23:24:07.535Z,87.29
2022-10-16T23:29:10.603Z,86.87
2022-10-16T23:34:13.406Z,86.99
2022-10-16T23:39:17.841Z,86.87
2022-10-16T23:44:20.786Z,87.15
2022-10-16T23:49:23.664Z,87.01
2022-10-16T23:54:27.828Z,87.46
2022-10-16T23:59:30.566Z,87.29
